Time;durP1;ratioP1;P1;durP2;ratioP2;P2;SDS_P1;SDS_P2;PMS_P1;PMS_P2;Temp;Humidity;BMP_temperature;BMP_pressure;BME280_temperature;BME280_humidity;BME280_pressure;Samples;Min_cycle;Max_cycle;Signal;HPM_P1;HPM_P2
2022/03/20 00:00:32;;;;;;;9.00;5.45;;;;;;;;;;5093999;28;20042;-60
2022/03/20 00:02:58;;;;;;;9.70;4.97;;;;;;;;;;5092455;28;20044;-59
2022/03/20 00:05:24;;;;;;;8.88;5.10;;;;;;;;;;5094328;28;20036;-59
2022/03/20 00:07:50;;;;;;;11.25;5.18;;;;;;;;;;5093053;28;20115;-59
2022/03/20 00:10:17;;;;;;;12.85;4.90;;;;;;;;;;5094298;28;20146;-59
2022/03/20 00:12:43;;;;;;;10.18;5.38;;;;;;;;;;5094214;28;20040;-60
2022/03/20 00:15:09;;;;;;;11.90;5.50;;;;;;;;;;5093563;28;20052;-60
2022/03/20 00:17:36;;;;;;;10.75;5.53;;;;;;;;;;5073641;28;20051;-59
2022/03/20 00:20:02;;;;;;;9.25;5.43;;;;;;;;;;5092381;28;20087;-59
2022/03/20 00:22:29;;;;;;;12.05;4.97;;;;;;;;;;5092772;28;20481;-59
2022/03/20 00:24:55;;;;;;;11.23;5.82;;;;;;;;;;5093579;28;20082;-60
2022/03/20 00:27:21;;;;;;;11.52;5.55;;;;;;;;;;5092890;28;20054;-59
2022/03/20 00:29:47;;;;;;;10.45;4.88;;;;;;;;;;5092586;28;20072;-59
2022/03/20 00:32:14;;;;;;;10.30;4.38;;;;;;;;;;5093383;28;20036;-59
2022/03/20 00:34:40;;;;;;;14.07;5.85;;;;;;;;;;5092876;28;20180;-59
2022/03/20 00:37:07;;;;;;;10.20;5.53;;;;;;;;;;5094022;28;20036;-59
2022/03/20 00:39:33;;;;;;;9.95;5.78;;;;;;;;;;5091484;28;20071;-60
2022/03/20 00:41:59;;;;;;;11.68;6.53;;;;;;;;;;5093242;28;20042;-59
2022/03/20 00:44:25;;;;;;;11.45;6.00;;;;;;;;;;5093370;28;20070;-59
2022/03/20 00:46:51;;;;;;;9.68;6.10;;;;;;;;;;5093303;28;20032;-60
2022/03/20 00:49:17;;;;;;;9.23;6.15;;;;;;;;;;5091637;28;20051;-59
2022/03/20 00:51:43;;;;;;;12.23;6.38;;;;;;;;;;5093280;28;20036;-59
2022/03/20 00:54:10;;;;;;;10.73;5.97;;;;;;;;;;5091884;28;20036;-59
2022/03/20 00:56:36;;;;;;;9.73;5.93;;;;;;;;;;5093526;28;20051;-60
2022/03/20 00:59:03;;;;;;;12.82;6.70;;;;;;;;;;5091018;28;20043;-60
2022/03/20 01:01:29;;;;;;;10.80;6.30;;;;;;;;;;5085124;28;20036;-60
2022/03/20 01:03:55;;;;;;;12.45;6.70;;;;;;;;;;5093343;28;20036;-60
2022/03/20 01:06:22;;;;;;;11.45;6.75;;;;;;;;;;5093666;28;20371;-60
2022/03/20 01:08:49;;;;;;;15.35;7.93;;;;;;;;;;5090515;28;20047;-60
2022/03/20 01:11:15;;;;;;;14.88;7.60;;;;;;;;;;5091864;28;20093;-60
2022/03/20 01:13:41;;;;;;;12.32;6.50;;;;;;;;;;5092542;28;20577;-59
2022/03/20 01:16:07;;;;;;;14.00;8.23;;;;;;;;;;5092469;28;20032;-60
2022/03/20 01:18:33;;;;;;;17.08;8.30;;;;;;;;;;5091518;28;20046;-59
2022/03/20 01:21:00;;;;;;;17.35;8.75;;;;;;;;;;5092297;28;20036;-60
2022/03/20 01:23:26;;;;;;;14.23;8.73;;;;;;;;;;5092322;28;20496;-60
2022/03/20 01:25:52;;;;;;;15.25;8.80;;;;;;;;;;5091787;28;20040;-59
2022/03/20 01:28:18;;;;;;;13.82;8.10;;;;;;;;;;5091119;28;20037;-59
2022/03/20 01:30:45;;;;;;;16.20;8.13;;;;;;;;;;5092705;28;20031;-59
2022/03/20 01:33:11;;;;;;;12.05;7.65;;;;;;;;;;5092442;28;20036;-60
2022/03/20 01:35:38;;;;;;;14.43;7.80;;;;;;;;;;5092872;28;20043;-60
2022/03/20 01:38:07;;;;;;;13.95;8.30;;;;;;;;;;5091270;28;20072;-59
2022/03/20 01:40:34;;;;;;;16.75;8.23;;;;;;;;;;5090766;28;20036;-60
2022/03/20 01:43:00;;;;;;;13.68;8.30;;;;;;;;;;5091876;28;20115;-60
2022/03/20 01:45:26;;;;;;;15.18;7.57;;;;;;;;;;5092066;28;20040;-60
2022/03/20 01:47:53;;;;;;;13.20;6.93;;;;;;;;;;5091422;28;20703;-60
2022/03/20 01:50:24;;;;;;;13.25;7.43;;;;;;;;;;5091502;28;20040;-59
2022/03/20 01:52:51;;;;;;;13.40;7.75;;;;;;;;;;5092166;28;20152;-59
2022/03/20 01:55:18;;;;;;;13.10;7.30;;;;;;;;;;5092593;28;20460;-59
2022/03/20 01:57:44;;;;;;;15.80;7.88;;;;;;;;;;5087581;28;20065;-60
2022/03/20 02:00:12;;;;;;;15.45;8.45;;;;;;;;;;5090568;28;20128;-59
2022/03/20 02:02:38;;;;;;;16.27;7.32;;;;;;;;;;5092336;28;20059;-60
2022/03/20 02:05:06;;;;;;;14.98;7.63;;;;;;;;;;5091998;28;20458;-59
2022/03/20 02:07:34;;;;;;;14.23;7.63;;;;;;;;;;5088448;28;20043;-59
2022/03/20 02:10:00;;;;;;;18.98;8.02;;;;;;;;;;5091720;28;20058;-59
2022/03/20 02:12:26;;;;;;;14.40;7.93;;;;;;;;;;5079134;28;20076;-59
2022/03/20 02:14:52;;;;;;;15.63;8.32;;;;;;;;;;5088586;28;20086;-59
2022/03/20 02:17:18;;;;;;;15.02;8.05;;;;;;;;;;5091874;28;20076;-59
2022/03/20 02:19:45;;;;;;;15.07;7.35;;;;;;;;;;5090642;28;20093;-59
2022/03/20 02:22:12;;;;;;;14.45;7.22;;;;;;;;;;5090874;28;20072;-59
2022/03/20 02:24:40;;;;;;;16.35;8.13;;;;;;;;;;5090050;28;20100;-59
2022/03/20 02:27:09;;;;;;;14.25;7.18;;;;;;;;;;5091802;28;20462;-59
2022/03/20 02:29:36;;;;;;;17.70;8.38;;;;;;;;;;5089899;28;20069;-59
2022/03/20 02:32:04;;;;;;;13.93;8.02;;;;;;;;;;5091164;28;20048;-59
2022/03/20 02:34:31;;;;;;;14.07;8.05;;;;;;;;;;5091745;28;20040;-59
2022/03/20 02:36:58;;;;;;;16.05;8.07;;;;;;;;;;5091720;28;20448;-59
2022/03/20 02:39:24;;;;;;;14.73;8.52;;;;;;;;;;5089804;28;20491;-59
2022/03/20 02:41:51;;;;;;;14.40;8.32;;;;;;;;;;5090314;28;20072;-59
2022/03/20 02:44:17;;;;;;;18.63;9.00;;;;;;;;;;5091805;28;20044;-59
2022/03/20 02:46:43;;;;;;;11.93;8.07;;;;;;;;;;5090002;28;20081;-59
2022/03/20 02:49:10;;;;;;;14.60;8.55;;;;;;;;;;5091066;28;20079;-60
2022/03/20 02:51:36;;;;;;;15.32;7.88;;;;;;;;;;5090414;28;20051;-59
2022/03/20 02:54:06;;;;;;;16.65;8.48;;;;;;;;;;5084012;28;20132;-59
2022/03/20 02:56:33;;;;;;;17.48;9.18;;;;;;;;;;5089858;28;20042;-59
2022/03/20 02:59:00;;;;;;;19.50;9.70;;;;;;;;;;5091216;28;20048;-59
2022/03/20 03:01:26;;;;;;;16.25;9.27;;;;;;;;;;5084994;28;20063;-59
2022/03/20 03:03:53;;;;;;;17.08;9.40;;;;;;;;;;5090259;28;20119;-59
2022/03/20 03:06:19;;;;;;;19.70;9.82;;;;;;;;;;5089736;28;20036;-59
2022/03/20 03:11:30;;;;;;;22.88;10.32;;;;;;;;;;5090694;28;20044;-59
2022/03/20 03:13:56;;;;;;;21.00;9.23;;;;;;;;;;5090460;28;20070;-59
2022/03/20 03:16:22;;;;;;;18.13;9.65;;;;;;;;;;5091646;28;20052;-59
2022/03/20 03:18:48;;;;;;;16.20;9.70;;;;;;;;;;5094719;28;20085;-59
2022/03/20 03:21:15;;;;;;;17.65;9.05;;;;;;;;;;5094531;28;20050;-59
2022/03/20 03:23:42;;;;;;;16.75;9.57;;;;;;;;;;5092318;28;20393;-59
2022/03/20 03:26:08;;;;;;;17.08;9.32;;;;;;;;;;5094064;28;20040;-59
2022/03/20 03:28:36;;;;;;;21.65;9.90;;;;;;;;;;5094970;28;20066;-59
2022/03/20 03:31:03;;;;;;;22.20;9.82;;;;;;;;;;5094420;28;20090;-59
2022/03/20 03:33:29;;;;;;;17.48;10.27;;;;;;;;;;5093527;28;20032;-59
2022/03/20 03:35:56;;;;;;;17.70;10.38;;;;;;;;;;5094941;28;20085;-59
2022/03/20 03:38:26;;;;;;;19.08;10.55;;;;;;;;;;5094443;28;20048;-59
2022/03/20 03:40:52;;;;;;;15.50;8.88;;;;;;;;;;5093771;28;20185;-59
2022/03/20 03:43:19;;;;;;;17.48;10.18;;;;;;;;;;5093405;28;20032;-59
2022/03/20 03:45:45;;;;;;;16.40;9.93;;;;;;;;;;5094936;28;20072;-59
2022/03/20 03:48:12;;;;;;;17.25;10.70;;;;;;;;;;5093253;28;20044;-59
2022/03/20 03:50:39;;;;;;;22.30;10.27;;;;;;;;;;5094381;28;20574;-59
2022/03/20 03:53:05;;;;;;;17.35;10.18;;;;;;;;;;5093762;28;20063;-59
2022/03/20 03:55:32;;;;;;;19.40;11.40;;;;;;;;;;5093445;28;20536;-59
2022/03/20 03:57:59;;;;;;;17.67;10.82;;;;;;;;;;5093264;28;20181;-59
2022/03/20 04:00:26;;;;;;;21.33;11.07;;;;;;;;;;5093622;28;20606;-59
2022/03/20 04:02:52;;;;;;;14.00;9.68;;;;;;;;;;5092479;28;20078;-59
2022/03/20 04:05:18;;;;;;;20.75;10.75;;;;;;;;;;5093161;28;20379;-59
2022/03/20 04:07:48;;;;;;;22.52;11.98;;;;;;;;;;5092657;28;20043;-59
2022/03/20 04:10:14;;;;;;;23.00;11.88;;;;;;;;;;5093941;28;20043;-59
2022/03/20 04:12:41;;;;;;;19.05;11.55;;;;;;;;;;5092705;28;20515;-59
2022/03/20 04:15:17;;;;;;;22.65;11.63;;;;;;;;;;5094365;28;20055;-59
2022/03/20 04:17:43;;;;;;;20.85;11.13;;;;;;;;;;5092628;28;20594;-59
2022/03/20 04:20:10;;;;;;;20.17;11.82;;;;;;;;;;5093494;28;20074;-59
2022/03/20 04:22:37;;;;;;;23.15;12.40;;;;;;;;;;5092409;28;20060;-59
2022/03/20 04:25:04;;;;;;;23.30;12.68;;;;;;;;;;5093918;28;20039;-59
2022/03/20 04:27:30;;;;;;;20.10;12.02;;;;;;;;;;5092181;28;20075;-59
2022/03/20 04:29:56;;;;;;;20.25;12.23;;;;;;;;;;5093568;28;20393;-60
2022/03/20 04:32:23;;;;;;;20.20;12.05;;;;;;;;;;5092371;28;20078;-59
2022/03/20 04:34:49;;;;;;;22.60;12.15;;;;;;;;;;5089729;28;20485;-59
2022/03/20 04:37:17;;;;;;;22.35;12.57;;;;;;;;;;5091324;28;20036;-59
2022/03/20 04:39:43;;;;;;;21.17;13.05;;;;;;;;;;5093254;28;20047;-59
2022/03/20 04:42:09;;;;;;;25.55;12.77;;;;;;;;;;5092664;28;20063;-59
2022/03/20 04:44:38;;;;;;;20.00;12.32;;;;;;;;;;5092495;28;20032;-59
2022/03/20 04:47:05;;;;;;;23.27;12.95;;;;;;;;;;5093469;28;20062;-59
2022/03/20 05:00:11;;;;;;;20.40;12.73;;;;;;;;;;5090863;28;20428;-59
2022/03/20 05:02:37;;;;;;;22.13;13.40;;;;;;;;;;5091568;28;20060;-59
2022/03/20 05:05:04;;;;;;;24.17;14.52;;;;;;;;;;5091308;28;20075;-59
2022/03/20 05:07:30;;;;;;;24.98;14.85;;;;;;;;;;5092045;28;20055;-59
2022/03/20 05:15:29;;;;;;;23.88;13.95;;;;;;;;;;5092890;28;20065;-59
2022/03/20 05:17:56;;;;;;;23.17;13.80;;;;;;;;;;5092119;28;20093;-59
2022/03/20 05:20:23;;;;;;;26.83;13.63;;;;;;;;;;5092994;28;20036;-60
2022/03/20 05:22:50;;;;;;;27.55;15.48;;;;;;;;;;5092358;28;20631;-60
2022/03/20 05:25:16;;;;;;;30.92;14.38;;;;;;;;;;5092380;28;20027;-60
2022/03/20 05:27:42;;;;;;;24.33;14.88;;;;;;;;;;5092253;28;20423;-59
2022/03/20 05:30:08;;;;;;;25.05;14.27;;;;;;;;;;5092503;28;20047;-59
2022/03/20 05:32:35;;;;;;;25.73;15.07;;;;;;;;;;5092394;28;20553;-59
2022/03/20 05:35:03;;;;;;;28.40;13.95;;;;;;;;;;5092233;28;20051;-59
2022/03/20 05:37:29;;;;;;;24.55;14.95;;;;;;;;;;5091938;28;20124;-59
2022/03/20 05:39:55;;;;;;;26.25;15.13;;;;;;;;;;5092006;28;20114;-60
2022/03/20 05:42:21;;;;;;;27.38;15.50;;;;;;;;;;5085781;22;20455;-62
2022/03/20 05:44:47;;;;;;;25.50;14.30;;;;;;;;;;5071800;28;20028;-61
2022/03/20 05:47:13;;;;;;;25.58;15.43;;;;;;;;;;5071538;28;20044;-62
2022/03/20 05:49:39;;;;;;;23.30;14.20;;;;;;;;;;5071983;28;20085;-61
2022/03/20 05:52:06;;;;;;;28.33;14.82;;;;;;;;;;5086425;28;20040;-61
2022/03/20 05:54:32;;;;;;;25.85;14.85;;;;;;;;;;5091870;28;20418;-62
2022/03/20 05:59:43;;;;;;;30.25;15.93;;;;;;;;;;5092235;28;20040;-62
2022/03/20 06:02:10;;;;;;;26.35;15.73;;;;;;;;;;5092044;28;20043;-61
2022/03/20 06:04:37;;;;;;;24.58;15.35;;;;;;;;;;5092155;28;20440;-61
2022/03/20 06:07:03;;;;;;;29.17;16.27;;;;;;;;;;5091770;28;20111;-62
2022/03/20 06:09:30;;;;;;;26.58;16.55;;;;;;;;;;5091667;28;20485;-62
2022/03/20 06:11:56;;;;;;;29.88;15.93;;;;;;;;;;5091591;28;20046;-62
2022/03/20 06:14:22;;;;;;;28.63;15.77;;;;;;;;;;5091593;28;20496;-61
2022/03/20 06:16:48;;;;;;;27.40;16.83;;;;;;;;;;5091231;28;20035;-61
2022/03/20 06:19:18;;;;;;;30.83;16.20;;;;;;;;;;5091909;28;20047;-62
2022/03/20 06:21:44;;;;;;;26.05;15.95;;;;;;;;;;5091664;28;20035;-62
2022/03/20 06:24:10;;;;;;;28.83;15.48;;;;;;;;;;5092062;28;20070;-62
2022/03/20 06:26:37;;;;;;;28.23;15.73;;;;;;;;;;5091798;28;20096;-62
2022/03/20 06:29:05;;;;;;;29.33;15.63;;;;;;;;;;5091309;28;20075;-61
2022/03/20 06:31:31;;;;;;;25.70;16.17;;;;;;;;;;5092036;28;20051;-61
2022/03/20 06:33:58;;;;;;;25.88;15.95;;;;;;;;;;5091353;28;20451;-61
2022/03/20 06:36:24;;;;;;;28.02;16.17;;;;;;;;;;5091929;28;20036;-61
2022/03/20 06:38:50;;;;;;;30.23;16.45;;;;;;;;;;5091475;28;20505;-61
2022/03/20 06:41:17;;;;;;;26.98;14.68;;;;;;;;;;5091548;28;20032;-62
2022/03/20 06:43:43;;;;;;;30.00;16.25;;;;;;;;;;5091418;28;20161;-61
2022/03/20 06:46:09;;;;;;;29.25;15.70;;;;;;;;;;5091553;28;20119;-62
2022/03/20 06:48:35;;;;;;;24.45;14.40;;;;;;;;;;5090610;28;20118;-61
2022/03/20 06:51:03;;;;;;;30.92;16.15;;;;;;;;;;5091998;28;20043;-62
2022/03/20 06:53:29;;;;;;;26.80;16.60;;;;;;;;;;5095694;28;20040;-62
2022/03/20 06:55:55;;;;;;;25.88;14.27;;;;;;;;;;5095579;28;20039;-61
2022/03/20 06:58:22;;;;;;;28.67;15.70;;;;;;;;;;5095578;28;20047;-61
2022/03/20 07:00:49;;;;;;;24.65;15.57;;;;;;;;;;5096050;28;20119;-62
2022/03/20 07:03:15;;;;;;;29.25;17.38;;;;;;;;;;5094970;28;20040;-61
2022/03/20 07:05:42;;;;;;;24.90;15.00;;;;;;;;;;5077292;28;20069;-61
2022/03/20 07:08:08;;;;;;;28.52;14.82;;;;;;;;;;5093853;28;20039;-61
2022/03/20 07:10:34;;;;;;;27.10;15.43;;;;;;;;;;5095527;28;20083;-61
2022/03/20 07:15:46;;;;;;;28.10;16.30;;;;;;;;;;5095051;28;20032;-62
2022/03/20 07:18:13;;;;;;;27.30;15.48;;;;;;;;;;5094319;28;20094;-61
2022/03/20 07:20:39;;;;;;;26.23;16.45;;;;;;;;;;5095063;28;20040;-62
2022/03/20 07:23:11;;;;;;;28.25;14.98;;;;;;;;;;5095548;28;20039;-61
2022/03/20 07:31:07;;;;;;;28.42;16.42;;;;;;;;;;5086548;28;20039;-61
2022/03/20 07:33:33;;;;;;;22.40;12.90;;;;;;;;;;5094433;28;20078;-61
2022/03/20 07:36:00;;;;;;;24.02;14.23;;;;;;;;;;5094515;28;20071;-62
2022/03/20 07:38:26;;;;;;;28.38;16.55;;;;;;;;;;5094704;28;20043;-62
2022/03/20 07:40:52;;;;;;;29.67;17.02;;;;;;;;;;5095015;28;20072;-61
2022/03/20 07:43:18;;;;;;;29.50;16.85;;;;;;;;;;5094696;28;20040;-62
2022/03/20 07:45:44;;;;;;;25.83;14.45;;;;;;;;;;5073424;28;20044;-62
2022/03/20 07:48:10;;;;;;;31.08;16.17;;;;;;;;;;5085790;28;20112;-62
2022/03/20 07:50:36;;;;;;;25.45;13.93;;;;;;;;;;5095134;28;20043;-62
2022/03/20 07:53:04;;;;;;;31.27;15.55;;;;;;;;;;5094989;28;20040;-62
2022/03/20 07:55:30;;;;;;;28.30;16.17;;;;;;;;;;5094529;28;20046;-62
2022/03/20 07:57:57;;;;;;;27.70;15.93;;;;;;;;;;5075868;28;20048;-62
2022/03/20 08:00:24;;;;;;;30.90;16.30;;;;;;;;;;5092749;28;20047;-62
2022/03/20 08:02:51;;;;;;;26.58;15.68;;;;;;;;;;5088909;28;20036;-61
2022/03/20 08:05:17;;;;;;;25.73;15.35;;;;;;;;;;5084329;28;20040;-62
2022/03/20 08:07:44;;;;;;;26.42;15.18;;;;;;;;;;5094496;28;20039;-62
2022/03/20 08:10:11;;;;;;;29.63;16.02;;;;;;;;;;5091943;28;20040;-62
2022/03/20 08:12:37;;;;;;;25.73;14.90;;;;;;;;;;5075613;28;20040;-62
2022/03/20 08:15:04;;;;;;;27.98;16.35;;;;;;;;;;5092165;28;20044;-62
2022/03/20 08:17:30;;;;;;;35.15;18.15;;;;;;;;;;5093615;28;20086;-62
2022/03/20 08:19:56;;;;;;;29.05;14.23;;;;;;;;;;5093417;28;20089;-62
2022/03/20 08:22:22;;;;;;;29.92;14.68;;;;;;;;;;5089046;28;20040;-61
2022/03/20 08:24:48;;;;;;;27.23;15.40;;;;;;;;;;5084459;28;20055;-62
2022/03/20 08:27:15;;;;;;;31.77;16.73;;;;;;;;;;5086957;28;20490;-62
2022/03/20 08:29:42;;;;;;;26.30;15.15;;;;;;;;;;5091352;28;20070;-62
2022/03/20 08:32:08;;;;;;;27.40;17.48;;;;;;;;;;5091365;28;20048;-62
2022/03/20 08:34:35;;;;;;;29.63;18.02;;;;;;;;;;5091069;28;20093;-62
2022/03/20 08:37:01;;;;;;;29.13;16.70;;;;;;;;;;5092958;28;20044;-63
2022/03/20 08:39:27;;;;;;;29.88;16.23;;;;;;;;;;5075211;28;20043;-62
2022/03/20 08:41:53;;;;;;;31.23;17.15;;;;;;;;;;5092585;28;20085;-62
2022/03/20 08:44:19;;;;;;;28.10;15.18;;;;;;;;;;5092965;28;20044;-62
2022/03/20 08:46:45;;;;;;;31.30;18.10;;;;;;;;;;5093965;28;20047;-62
2022/03/20 08:49:11;;;;;;;28.17;17.45;;;;;;;;;;5092712;28;20040;-62
2022/03/20 08:51:40;;;;;;;32.78;18.83;;;;;;;;;;5093291;28;20035;-62
2022/03/20 08:54:07;;;;;;;30.35;17.92;;;;;;;;;;5092818;28;20089;-61
2022/03/20 08:56:33;;;;;;;30.90;18.63;;;;;;;;;;5092675;28;20039;-61
2022/03/20 08:58:59;;;;;;;29.08;18.10;;;;;;;;;;5093080;28;20048;-62
2022/03/20 09:01:26;;;;;;;32.70;19.38;;;;;;;;;;5090584;28;20032;-61
2022/03/20 09:03:52;;;;;;;30.75;19.52;;;;;;;;;;5073932;28;20040;-61
2022/03/20 09:06:18;;;;;;;31.15;19.38;;;;;;;;;;5092103;28;20047;-62
2022/03/20 09:08:44;;;;;;;35.42;19.13;;;;;;;;;;5081400;28;20040;-62
2022/03/20 09:11:10;;;;;;;32.35;19.58;;;;;;;;;;5072571;28;20035;-63
2022/03/20 09:13:36;;;;;;;33.47;20.67;;;;;;;;;;5079055;28;20036;-62
2022/03/20 09:18:59;;;;;;;35.20;20.05;;;;;;;;;;5085034;28;20048;-62
2022/03/20 09:21:29;;;;;;;33.13;18.52;;;;;;;;;;5084636;28;20032;-63
2022/03/20 09:23:56;;;;;;;31.52;17.88;;;;;;;;;;5081783;28;20123;-63
2022/03/20 09:26:22;;;;;;;33.17;19.92;;;;;;;;;;5088597;28;20043;-62
2022/03/20 09:28:48;;;;;;;33.95;19.90;;;;;;;;;;5090697;28;20040;-63
2022/03/20 09:31:15;;;;;;;29.90;17.70;;;;;;;;;;5092638;28;20497;-60
2022/03/20 09:33:41;;;;;;;31.30;18.67;;;;;;;;;;5091259;28;20064;-60
2022/03/20 09:36:07;;;;;;;31.50;19.92;;;;;;;;;;5090414;28;20048;-60
2022/03/20 09:38:33;;;;;;;30.67;20.05;;;;;;;;;;5082554;28;20075;-61
2022/03/20 09:41:03;;;;;;;32.65;20.38;;;;;;;;;;5091739;28;20128;-61
2022/03/20 09:43:30;;;;;;;33.35;19.65;;;;;;;;;;5092329;28;20036;-60
2022/03/20 09:45:56;;;;;;;34.90;20.42;;;;;;;;;;5091404;28;20055;-61
2022/03/20 09:48:22;;;;;;;34.50;20.55;;;;;;;;;;5089841;28;20576;-61
2022/03/20 09:50:48;;;;;;;32.17;19.92;;;;;;;;;;5092070;28;20051;-61
2022/03/20 09:53:14;;;;;;;35.55;21.00;;;;;;;;;;5091989;28;20038;-61
2022/03/20 09:55:40;;;;;;;32.45;19.95;;;;;;;;;;5087175;28;20387;-61
2022/03/20 09:58:06;;;;;;;30.30;18.55;;;;;;;;;;5081783;28;20032;-61
2022/03/20 10:00:32;;;;;;;34.08;21.73;;;;;;;;;;5072856;28;20071;-61
2022/03/20 10:02:58;;;;;;;33.15;20.33;;;;;;;;;;5081012;28;20048;-61
2022/03/20 10:05:28;;;;;;;34.88;20.75;;;;;;;;;;5090520;28;20036;-61
2022/03/20 10:07:54;;;;;;;31.17;19.90;;;;;;;;;;5087020;28;20088;-61
2022/03/20 10:10:29;;;;;;;32.30;18.27;;;;;;;;;;5086645;28;20058;-61
2022/03/20 10:12:58;;;;;;;33.50;20.98;;;;;;;;;;5084168;28;20041;-61
2022/03/20 10:15:28;;;;;;;33.63;20.95;;;;;;;;;;5085653;28;20047;-61
2022/03/20 10:18:11;;;;;;;28.88;16.70;;;;;;;;;;5088886;28;20032;-60
2022/03/20 10:20:46;;;;;;;34.60;20.80;;;;;;;;;;5085561;28;20036;-60
2022/03/20 10:23:30;;;;;;;32.83;20.30;;;;;;;;;;5081353;28;20041;-61
2022/03/20 10:25:56;;;;;;;33.13;20.55;;;;;;;;;;5087580;28;20046;-60
2022/03/20 10:28:22;;;;;;;35.55;21.20;;;;;;;;;;5084762;28;20093;-61
2022/03/20 10:31:01;;;;;;;34.88;21.77;;;;;;;;;;5087619;28;20035;-60
2022/03/20 10:33:27;;;;;;;33.60;21.58;;;;;;;;;;5089290;28;20036;-60
2022/03/20 10:36:13;;;;;;;35.80;22.15;;;;;;;;;;5088574;28;20546;-60
2022/03/20 10:38:41;;;;;;;32.38;20.25;;;;;;;;;;5084764;28;20051;-60
2022/03/20 10:41:17;;;;;;;34.38;20.60;;;;;;;;;;5090383;28;20042;-60
2022/03/20 10:43:43;;;;;;;31.52;19.58;;;;;;;;;;5091107;28;20040;-60
2022/03/20 10:46:10;;;;;;;34.25;20.13;;;;;;;;;;5088146;28;20509;-61
2022/03/20 10:48:38;;;;;;;32.30;19.55;;;;;;;;;;5087718;28;20387;-60
2022/03/20 10:51:05;;;;;;;31.52;20.70;;;;;;;;;;5073102;28;20075;-61
2022/03/20 10:53:31;;;;;;;29.20;16.15;;;;;;;;;;5072441;28;20052;-61
2022/03/20 10:55:58;;;;;;;36.53;20.77;;;;;;;;;;5092067;28;20040;-61
2022/03/20 10:58:25;;;;;;;33.78;21.80;;;;;;;;;;5073222;28;20119;-61
2022/03/20 11:00:51;;;;;;;31.60;20.13;;;;;;;;;;5091473;28;20032;-61
2022/03/20 11:03:21;;;;;;;36.42;21.73;;;;;;;;;;5091066;28;20036;-60
2022/03/20 11:05:47;;;;;;;36.10;21.80;;;;;;;;;;5089542;28;20040;-61
2022/03/20 11:08:13;;;;;;;36.60;21.80;;;;;;;;;;5090723;28;20044;-61
2022/03/20 11:10:44;;;;;;;34.10;21.70;;;;;;;;;;5090359;28;20036;-61
2022/03/20 11:13:11;;;;;;;34.28;21.17;;;;;;;;;;5086971;28;20532;-61
2022/03/20 11:15:37;;;;;;;33.05;20.70;;;;;;;;;;5090222;28;20039;-61
2022/03/20 11:18:04;;;;;;;36.00;22.33;;;;;;;;;;5084804;28;20397;-61
2022/03/20 11:20:30;;;;;;;34.92;22.17;;;;;;;;;;5081676;28;20040;-60
2022/03/20 11:22:59;;;;;;;38.80;22.23;;;;;;;;;;5089883;28;20035;-60
2022/03/20 11:25:26;;;;;;;35.17;19.95;;;;;;;;;;5078070;28;20029;-61
2022/03/20 11:27:54;;;;;;;34.15;23.08;;;;;;;;;;5076379;28;20040;-60
2022/03/20 11:30:21;;;;;;;38.22;23.20;;;;;;;;;;5090929;28;20040;-60
2022/03/20 11:32:48;;;;;;;34.47;22.10;;;;;;;;;;5090204;28;20501;-60
2022/03/20 11:35:15;;;;;;;32.30;22.38;;;;;;;;;;5091565;28;20045;-61
2022/03/20 11:37:45;;;;;;;35.25;22.05;;;;;;;;;;5091336;28;20512;-60
2022/03/20 11:40:21;;;;;;;36.20;21.77;;;;;;;;;;5083245;28;20044;-61
2022/03/20 11:42:48;;;;;;;34.75;21.73;;;;;;;;;;5089271;22;20123;-59
2022/03/20 11:45:18;;;;;;;37.70;23.10;;;;;;;;;;5071534;28;20044;-59
2022/03/20 11:47:48;;;;;;;32.55;22.80;;;;;;;;;;5079056;28;20044;-59
2022/03/20 11:50:14;;;;;;;34.33;22.03;;;;;;;;;;5075009;28;20139;-59
2022/03/20 11:52:53;;;;;;;36.58;22.73;;;;;;;;;;5075344;28;20123;-59
2022/03/20 11:55:29;;;;;;;35.25;22.75;;;;;;;;;;5080688;28;20039;-59
2022/03/20 11:57:56;;;;;;;39.33;23.13;;;;;;;;;;5075639;28;20082;-59
2022/03/20 12:00:29;;;;;;;36.13;22.92;;;;;;;;;;5075731;28;20047;-59
2022/03/20 12:03:10;;;;;;;36.42;23.05;;;;;;;;;;5072599;28;20041;-59
2022/03/20 12:05:42;;;;;;;37.08;22.60;;;;;;;;;;5068405;28;20041;-60
2022/03/20 12:08:08;;;;;;;37.97;23.20;;;;;;;;;;5072668;28;20036;-60
2022/03/20 12:10:53;;;;;;;35.90;23.85;;;;;;;;;;5072932;28;20053;-60
2022/03/20 12:13:38;;;;;;;36.75;23.33;;;;;;;;;;5073101;28;20036;-59
2022/03/20 12:16:04;;;;;;;33.60;21.27;;;;;;;;;;5073837;28;20453;-59
2022/03/20 12:18:50;;;;;;;33.85;23.30;;;;;;;;;;5072831;28;20372;-59
2022/03/20 12:21:16;;;;;;;36.42;23.45;;;;;;;;;;5073121;28;20083;-59
2022/03/20 12:23:44;;;;;;;36.85;23.65;;;;;;;;;;5072611;28;20086;-59
2022/03/20 12:26:33;;;;;;;36.70;23.15;;;;;;;;;;5073529;28;20528;-59
2022/03/20 12:29:18;;;;;;;34.00;21.83;;;;;;;;;;5071608;28;20094;-59
2022/03/20 12:31:54;;;;;;;35.50;23.13;;;;;;;;;;5072991;28;20533;-59
2022/03/20 12:34:20;;;;;;;39.58;24.00;;;;;;;;;;5072990;28;20559;-59
2022/03/20 12:36:46;;;;;;;42.38;24.38;;;;;;;;;;5073346;28;20034;-59
2022/03/20 12:39:12;;;;;;;35.08;21.80;;;;;;;;;;5072101;28;20047;-59
2022/03/20 12:41:38;;;;;;;37.17;23.65;;;;;;;;;;5071875;28;20037;-59
2022/03/20 12:44:07;;;;;;;37.03;23.98;;;;;;;;;;5071950;28;20098;-59
2022/03/20 12:46:37;;;;;;;34.92;23.10;;;;;;;;;;5073098;28;20047;-59
2022/03/20 12:49:03;;;;;;;38.63;23.25;;;;;;;;;;5070699;28;20166;-59
2022/03/20 12:51:36;;;;;;;34.90;23.05;;;;;;;;;;5072785;28;20131;-59
2022/03/20 12:54:11;;;;;;;38.22;22.00;;;;;;;;;;5073129;28;20042;-59
2022/03/20 12:56:50;;;;;;;35.42;22.55;;;;;;;;;;5072821;28;20041;-58
2022/03/20 12:59:19;;;;;;;35.40;23.10;;;;;;;;;;5069768;28;20041;-58
2022/03/20 13:01:45;;;;;;;34.90;22.65;;;;;;;;;;5066583;28;20032;-58
2022/03/20 13:04:15;;;;;;;38.22;23.40;;;;;;;;;;5073097;28;20051;-58
2022/03/20 13:06:41;;;;;;;36.72;22.42;;;;;;;;;;5072392;28;20131;-58
2022/03/20 13:09:12;;;;;;;34.60;22.40;;;;;;;;;;5071567;28;20083;-58
2022/03/20 13:11:56;;;;;;;;;;;;;;;;;;5077786;28;20059;-59
2022/03/20 13:14:23;;;;;;;39.35;24.25;;;;;;;;;;5073143;28;19923;-59
2022/03/20 13:16:53;;;;;;;35.92;23.30;;;;;;;;;;5074027;28;20524;-59
2022/03/20 13:19:45;;;;;;;37.63;23.02;;;;;;;;;;5071709;28;20043;-59
2022/03/20 13:22:16;;;;;;;33.40;23.08;;;;;;;;;;5078077;28;20063;-59
2022/03/20 13:24:43;;;;;;;35.13;22.83;;;;;;;;;;5089738;28;20036;-59
2022/03/20 13:27:10;;;;;;;35.70;24.30;;;;;;;;;;5087699;28;20040;-59
2022/03/20 13:29:38;;;;;;;34.67;23.65;;;;;;;;;;5079122;28;20040;-59
2022/03/20 13:32:04;;;;;;;35.33;22.08;;;;;;;;;;5074165;28;20040;-59
2022/03/20 13:34:31;;;;;;;37.92;23.88;;;;;;;;;;5072376;28;20044;-59
2022/03/20 13:37:06;;;;;;;41.25;24.52;;;;;;;;;;5070885;28;20552;-59
2022/03/20 13:39:32;;;;;;;37.53;24.73;;;;;;;;;;5068404;28;20409;-59
2022/03/20 13:41:58;;;;;;;38.90;23.63;;;;;;;;;;5075871;28;20044;-59
2022/03/20 13:44:24;;;;;;;33.85;22.98;;;;;;;;;;5077818;28;20051;-59
2022/03/20 13:46:50;;;;;;;36.47;23.25;;;;;;;;;;5080762;28;20044;-59
2022/03/20 13:49:17;;;;;;;35.75;22.63;;;;;;;;;;5077814;28;20028;-59
2022/03/20 13:51:48;;;;;;;37.60;23.40;;;;;;;;;;5072973;28;20036;-59
2022/03/20 13:54:18;;;;;;;39.78;24.05;;;;;;;;;;5072945;28;20517;-59
2022/03/20 13:56:48;;;;;;;36.75;23.55;;;;;;;;;;5071380;28;20040;-59
2022/03/20 13:59:17;;;;;;;37.55;23.08;;;;;;;;;;5071921;28;20064;-59
2022/03/20 14:01:47;;;;;;;35.72;23.58;;;;;;;;;;5067914;28;20532;-59
2022/03/20 14:04:17;;;;;;;37.80;23.05;;;;;;;;;;5067728;28;20043;-59
2022/03/20 14:06:44;;;;;;;34.80;22.90;;;;;;;;;;5068681;28;20029;-59
2022/03/20 14:09:11;;;;;;;37.28;24.08;;;;;;;;;;5068872;28;20106;-59
2022/03/20 14:11:38;;;;;;;35.33;22.65;;;;;;;;;;5066070;28;20123;-59
2022/03/20 14:14:05;;;;;;;35.45;23.27;;;;;;;;;;5068713;28;20063;-59
2022/03/20 14:16:32;;;;;;;36.10;23.38;;;;;;;;;;5070227;28;20119;-59
2022/03/20 14:19:02;;;;;;;36.10;23.73;;;;;;;;;;5070653;28;20048;-59
2022/03/20 14:21:31;;;;;;;38.08;24.38;;;;;;;;;;5068631;28;20041;-59
2022/03/20 14:24:01;;;;;;;39.97;24.27;;;;;;;;;;5070168;28;20116;-59
2022/03/20 14:26:28;;;;;;;42.33;27.00;;;;;;;;;;5069376;28;20379;-59
2022/03/20 14:29:01;;;;;;;38.20;25.85;;;;;;;;;;5070630;28;20040;-59
2022/03/20 14:39:49;;;;;;;37.97;23.60;;;;;;;;;;5069040;28;20710;-59
2022/03/20 14:42:42;;;;;;;36.63;23.75;;;;;;;;;;5074258;28;20582;-59
2022/03/20 14:45:09;;;;;;;36.03;23.52;;;;;;;;;;5066918;28;20051;-59
2022/03/20 14:47:35;;;;;;;37.65;22.58;;;;;;;;;;5071368;28;20040;-58
2022/03/20 14:50:03;;;;;;;32.30;21.70;;;;;;;;;;5073791;28;20044;-59
2022/03/20 14:52:29;;;;;;;36.53;24.25;;;;;;;;;;5069949;28;20040;-59
2022/03/20 14:54:55;;;;;;;32.45;21.88;;;;;;;;;;5069599;28;20453;-58
2022/03/20 14:57:21;;;;;;;36.70;22.67;;;;;;;;;;5069458;28;20044;-59
2022/03/20 14:59:49;;;;;;;37.03;22.67;;;;;;;;;;5069524;28;20546;-58
2022/03/20 15:02:15;;;;;;;34.90;21.73;;;;;;;;;;5072999;28;20448;-58
2022/03/20 15:04:41;;;;;;;36.13;22.27;;;;;;;;;;5077900;28;20036;-59